createdAt,value
2023-03-02T00:01:38.162Z,18.37
2023-03-02T00:04:08.074Z,22.00
2023-03-02T00:06:36.267Z,19.33
2023-03-02T00:09:06.105Z,17.13
2023-03-02T00:11:35.568Z,18.77
2023-03-02T00:14:02.522Z,19.17
2023-03-02T00:16:29.339Z,21.47
2023-03-02T00:18:56.155Z,17.60
2023-03-02T00:21:24.530Z,20.97
2023-03-02T00:23:52.263Z,20.73
2023-03-02T00:26:19.050Z,21.47
2023-03-02T00:28:45.903Z,23.77
2023-03-02T00:31:12.849Z,18.90
2023-03-02T00:33:39.592Z,20.47
2023-03-02T00:36:06.775Z,19.70
2023-03-02T00:38:33.526Z,21.70
2023-03-02T00:41:00.298Z,21.67
2023-03-02T00:43:28.105Z,21.97
2023-03-02T00:45:55.786Z,23.27
2023-03-02T00:48:22.947Z,20.63
2023-03-02T00:50:49.702Z,22.60
2023-03-02T00:53:18.050Z,21.13
2023-03-02T00:55:54.227Z,25.47
2023-03-02T00:58:23.811Z,22.57
2023-03-02T01:00:50.560Z,21.37
2023-03-02T01:03:17.421Z,20.73
2023-03-02T01:05:44.254Z,20.93
2023-03-02T01:08:11.326Z,20.57
2023-03-02T01:10:38.851Z,22.83
2023-03-02T01:13:06.310Z,20.70
2023-03-02T01:15:34.015Z,22.87
2023-03-02T01:18:01.159Z,22.57
2023-03-02T01:20:28.326Z,22.50
2023-03-02T01:22:55.175Z,22.13
2023-03-02T01:25:22.038Z,26.87
2023-03-02T01:27:48.896Z,22.03
2023-03-02T01:30:16.338Z,23.03
2023-03-02T01:32:43.142Z,22.50
2023-03-02T01:35:10.134Z,26.37
2023-03-02T01:37:36.877Z,26.30
2023-03-02T01:40:06.437Z,23.33
2023-03-02T01:42:46.860Z,24.70
2023-03-02T01:45:58.591Z,23.70
2023-03-02T01:48:45.126Z,23.37
2023-03-02T01:51:16.040Z,23.10
2023-03-02T01:53:46.731Z,24.93
2023-03-02T01:56:20.113Z,23.53
2023-03-02T01:58:51.196Z,23.23
2023-03-02T02:01:18.205Z,25.73
2023-03-02T02:03:48.684Z,23.77
2023-03-02T02:06:30.718Z,24.37
2023-03-02T02:08:58.738Z,24.67
2023-03-02T02:11:25.857Z,22.37
2023-03-02T02:14:00.921Z,25.17
2023-03-02T02:16:34.028Z,25.10
2023-03-02T02:19:02.361Z,22.63
2023-03-02T02:21:29.471Z,25.07
2023-03-02T02:24:21.628Z,24.23
2023-03-02T02:26:51.611Z,22.50
2023-03-02T02:29:24.612Z,23.20
2023-03-02T02:32:02.756Z,23.63
2023-03-02T02:34:50.781Z,26.37
2023-03-02T02:37:27.765Z,25.73
2023-03-02T02:39:55.212Z,27.30
2023-03-02T02:42:28.619Z,26.80
2023-03-02T02:44:58.129Z,27.10
2023-03-02T02:47:25.769Z,25.97
2023-03-02T02:49:54.426Z,25.80
2023-03-02T02:52:23.679Z,25.97
2023-03-02T02:54:53.764Z,26.10
2023-03-02T02:57:24.445Z,24.13
2023-03-02T02:59:54.586Z,25.63
2023-03-02T03:02:25.301Z,25.13
2023-03-02T03:04:52.225Z,24.73
2023-03-02T03:07:23.042Z,25.17
2023-03-02T03:10:12.636Z,23.57
2023-03-02T03:12:40.323Z,24.33
2023-03-02T03:15:08.607Z,28.07
2023-03-02T03:17:35.452Z,26.17
2023-03-02T03:20:09.217Z,27.30
2023-03-02T03:22:37.485Z,27.13
2023-03-02T03:25:05.304Z,28.47
2023-03-02T03:27:31.972Z,26.83
2023-03-02T03:30:00.043Z,26.80
2023-03-02T03:32:26.913Z,27.67
2023-03-02T03:34:53.682Z,27.30
2023-03-02T03:37:20.682Z,27.53
2023-03-02T03:39:47.745Z,27.90
2023-03-02T03:42:14.488Z,27.30
2023-03-02T03:44:41.364Z,26.20
2023-03-02T03:47:08.178Z,31.27
2023-03-02T03:49:35.460Z,28.07
2023-03-02T03:52:03.781Z,31.43
2023-03-02T03:54:30.808Z,28.03
2023-03-02T03:56:57.694Z,27.40
2023-03-02T03:59:26.023Z,26.60
2023-03-02T04:01:59.030Z,29.07
2023-03-02T04:04:29.979Z,28.00
2023-03-02T04:06:57.092Z,32.63
2023-03-02T04:09:24.719Z,28.53
2023-03-02T04:11:53.443Z,26.60
2023-03-02T04:14:22.138Z,29.67
2023-03-02T04:16:48.912Z,28.47
2023-03-02T04:19:17.572Z,27.80
2023-03-02T04:21:48.147Z,26.57
2023-03-02T04:24:15.996Z,27.87
2023-03-02T04:26:44.185Z,27.77
2023-03-02T04:29:12.327Z,31.47
2023-03-02T04:31:40.028Z,27.73
2023-03-02T04:34:07.626Z,26.27
2023-03-02T04:36:36.536Z,29.17
2023-03-02T04:39:05.591Z,27.10
2023-03-02T04:41:32.744Z,31.47
2023-03-02T04:44:02.441Z,29.30
2023-03-02T04:46:29.180Z,28.47
2023-03-02T04:48:55.935Z,29.63
2023-03-02T04:51:31.692Z,31.60
2023-03-02T04:54:02.227Z,28.37
2023-03-02T04:56:29.598Z,26.77
2023-03-02T04:58:57.453Z,29.03
2023-03-02T05:01:25.264Z,27.67
2023-03-02T05:03:52.204Z,30.27
2023-03-02T05:06:19.573Z,35.77
2023-03-02T05:08:46.298Z,29.97
2023-03-02T05:11:21.920Z,27.60
2023-03-02T05:13:50.724Z,27.00
2023-03-02T05:16:18.236Z,31.60
2023-03-02T05:18:45.102Z,27.43
2023-03-02T05:21:12.876Z,30.47
2023-03-02T05:23:41.549Z,28.80
2023-03-02T05:26:08.893Z,33.03
2023-03-02T05:28:35.861Z,33.90
2023-03-02T05:31:02.730Z,29.47
2023-03-02T05:33:30.013Z,30.77
2023-03-02T05:35:57.122Z,33.93
2023-03-02T05:38:23.843Z,30.47
2023-03-02T05:40:50.666Z,29.10
2023-03-02T05:43:20.575Z,29.90
2023-03-02T05:45:47.329Z,29.53
2023-03-02T05:48:14.486Z,27.93
2023-03-02T05:50:41.944Z,28.17
2023-03-02T05:53:09.021Z,27.83
2023-03-02T05:55:37.217Z,30.57
2023-03-02T05:58:11.620Z,28.73
2023-03-02T06:00:38.354Z,26.27
2023-03-02T06:03:05.142Z,32.07
2023-03-02T06:05:31.977Z,30.10
2023-03-02T06:07:58.741Z,31.50
2023-03-02T06:10:25.938Z,29.07
2023-03-02T06:12:52.843Z,28.03
2023-03-02T06:15:19.846Z,27.33
2023-03-02T06:17:46.505Z,28.53
2023-03-02T06:20:14.107Z,32.67
2023-03-02T06:22:43.044Z,28.50
2023-03-02T06:25:15.039Z,29.87
2023-03-02T06:27:42.628Z,31.40
2023-03-02T06:30:16.103Z,29.60
2023-03-02T06:32:43.406Z,28.30
2023-03-02T06:35:10.953Z,30.93
2023-03-02T06:37:37.894Z,33.17
2023-03-02T06:40:11.846Z,25.90
2023-03-02T06:42:39.453Z,30.50
2023-03-02T06:45:07.758Z,29.53
2023-03-02T06:47:34.791Z,31.03
2023-03-02T06:50:01.629Z,28.80
2023-03-02T06:52:28.469Z,26.60
2023-03-02T06:54:55.545Z,30.50
2023-03-02T06:57:22.331Z,33.17
2023-03-02T06:59:49.065Z,31.57
2023-03-02T07:02:15.838Z,32.03
2023-03-02T07:04:42.545Z,32.23
2023-03-02T07:07:09.282Z,34.90
2023-03-02T07:09:36.146Z,30.00
2023-03-02T07:12:02.928Z,30.10
2023-03-02T07:14:29.687Z,30.43
2023-03-02T07:16:57.585Z,30.60
2023-03-02T07:19:24.526Z,27.30
2023-03-02T07:21:51.274Z,31.53
2023-03-02T07:24:17.997Z,32.70
2023-03-02T07:26:44.753Z,29.57
2023-03-02T07:29:11.492Z,28.40
2023-03-02T07:31:38.202Z,29.40
2023-03-02T07:34:05.184Z,30.57
2023-03-02T07:36:31.936Z,27.83
2023-03-02T07:38:58.687Z,28.30
2023-03-02T07:41:25.412Z,30.33
2023-03-02T07:43:52.135Z,30.53
2023-03-02T07:46:18.832Z,27.97
2023-03-02T07:48:45.663Z,29.67
2023-03-02T07:51:12.543Z,25.53
2023-03-02T07:53:39.280Z,31.97
2023-03-02T07:56:10.897Z,29.87
2023-03-02T07:58:37.880Z,28.90
2023-03-02T08:01:04.869Z,35.97
2023-03-02T08:03:34.068Z,28.63
2023-03-02T08:06:09.230Z,28.67
2023-03-02T08:08:36.613Z,28.50
2023-03-02T08:11:12.326Z,29.27
2023-03-02T08:13:39.319Z,28.77
2023-03-02T08:16:08.578Z,28.33
2023-03-02T08:18:36.010Z,28.60
2023-03-02T08:21:03.323Z,27.30
2023-03-02T08:23:30.142Z,26.77
2023-03-02T08:25:56.956Z,28.97
2023-03-02T08:28:23.618Z,28.27
2023-03-02T08:30:57.403Z,27.87
2023-03-02T08:33:24.435Z,28.67
2023-03-02T08:36:05.582Z,28.50
2023-03-02T08:38:33.078Z,30.73
2023-03-02T08:41:03.635Z,28.53
2023-03-02T08:43:30.624Z,34.17
2023-03-02T08:46:00.225Z,27.97
2023-03-02T08:48:28.382Z,33.20
2023-03-02T08:51:04.189Z,31.73
2023-03-02T08:53:33.476Z,30.13
2023-03-02T08:56:00.964Z,27.63
2023-03-02T08:58:28.368Z,29.13
2023-03-02T09:00:55.178Z,26.97
2023-03-02T09:03:22.034Z,29.00
2023-03-02T09:05:48.898Z,28.40
2023-03-02T09:08:15.645Z,28.93
2023-03-02T09:10:42.395Z,29.43
2023-03-02T09:13:09.239Z,28.17
2023-03-02T09:15:37.050Z,28.50
2023-03-02T09:18:03.901Z,27.00
2023-03-02T09:20:31.165Z,26.30
2023-03-02T09:22:58.079Z,31.90
2023-03-02T09:25:24.820Z,29.93
2023-03-02T09:27:51.564Z,30.87
2023-03-02T09:30:18.613Z,28.70
2023-03-02T09:32:45.629Z,30.00
2023-03-02T09:35:12.621Z,29.37
2023-03-02T09:37:39.511Z,30.43
2023-03-02T09:40:22.754Z,28.60
2023-03-02T09:43:14.634Z,29.37
2023-03-02T09:46:02.537Z,27.43
2023-03-02T09:48:41.104Z,27.33
2023-03-02T09:51:44.693Z,30.20
2023-03-02T09:54:15.271Z,26.50
2023-03-02T09:56:52.465Z,29.33
2023-03-02T09:59:32.698Z,25.97
2023-03-02T10:02:45.146Z,30.10
2023-03-02T10:05:22.786Z,34.60
2023-03-02T10:07:49.714Z,43.23
2023-03-02T10:10:25.147Z,28.83
2023-03-02T10:13:10.225Z,29.33
2023-03-02T10:15:48.760Z,29.80
2023-03-02T10:18:24.991Z,28.43
2023-03-02T10:21:15.731Z,27.97
2023-03-02T10:24:08.775Z,27.17
2023-03-02T10:26:40.198Z,29.20
2023-03-02T10:29:39.392Z,26.00
2023-03-02T10:32:23.751Z,27.30
2023-03-02T10:34:52.313Z,30.27
2023-03-02T10:37:25.352Z,27.60
2023-03-02T10:39:52.961Z,24.87
2023-03-02T10:42:25.936Z,27.60
2023-03-02T10:45:02.783Z,30.10
2023-03-02T10:47:29.761Z,27.53
2023-03-02T10:49:57.730Z,25.70
2023-03-02T10:52:26.356Z,29.30
2023-03-02T10:55:12.640Z,27.97
2023-03-02T10:57:41.801Z,29.07
2023-03-02T11:00:26.928Z,26.53
2023-03-02T11:02:56.447Z,27.07
2023-03-02T11:05:36.102Z,26.03
2023-03-02T11:08:04.500Z,24.77
2023-03-02T11:10:38.362Z,25.40
2023-03-02T11:13:44.272Z,24.63
2023-03-02T11:16:17.036Z,26.77
2023-03-02T11:18:49.533Z,27.60
2023-03-02T11:21:39.470Z,27.47
2023-03-02T11:24:34.767Z,27.90
2023-03-02T11:27:08.071Z,32.13
2023-03-02T11:29:38.164Z,78.40
2023-03-02T11:32:13.458Z,26.57
2023-03-02T11:34:49.466Z,28.83
2023-03-02T11:37:21.558Z,27.33
2023-03-02T11:39:54.968Z,29.70
2023-03-02T11:42:38.738Z,25.77
2023-03-02T11:45:16.801Z,29.23
2023-03-02T11:48:03.717Z,30.07
2023-03-02T11:50:34.632Z,26.97
2023-03-02T11:53:07.757Z,27.33
2023-03-02T11:55:44.728Z,24.23
2023-03-02T11:58:21.879Z,28.43
2023-03-02T12:00:49.781Z,28.30
2023-03-02T12:03:16.482Z,25.97
2023-03-02T12:05:46.887Z,26.47
2023-03-02T12:08:19.806Z,25.27
2023-03-02T12:10:55.896Z,28.13
2023-03-02T12:13:35.514Z,23.80
2023-03-02T12:16:03.494Z,27.27
2023-03-02T12:18:43.298Z,27.60
2023-03-02T12:21:16.973Z,23.67
2023-03-02T12:23:49.875Z,24.77
2023-03-02T12:26:19.620Z,24.23
2023-03-02T12:29:01.368Z,28.53
2023-03-02T12:31:48.357Z,26.43
2023-03-02T12:34:24.358Z,28.30
2023-03-02T12:36:55.004Z,51.67
2023-03-02T12:39:39.012Z,29.93
2023-03-02T12:42:35.160Z,39.47
2023-03-02T12:45:13.656Z,24.40
2023-03-02T12:47:45.733Z,25.30
2023-03-02T12:50:24.995Z,24.67
2023-03-02T12:53:04.580Z,29.20
2023-03-02T12:55:31.824Z,25.30
2023-03-02T12:58:03.862Z,27.73
2023-03-02T13:00:37.054Z,29.90
2023-03-02T13:03:06.971Z,24.53
2023-03-02T13:05:35.898Z,24.17
2023-03-02T13:08:05.906Z,26.13
2023-03-02T13:10:53.851Z,26.43
2023-03-02T13:13:26.765Z,25.47
2023-03-02T13:15:57.988Z,28.10
2023-03-02T13:18:33.816Z,24.43
2023-03-02T13:21:02.967Z,30.67
2023-03-02T13:23:31.945Z,26.27
2023-03-02T13:26:01.685Z,25.00
2023-03-02T13:28:37.554Z,23.67
2023-03-02T13:31:20.544Z,26.33
2023-03-02T13:33:50.324Z,26.33
2023-03-02T13:36:29.574Z,24.10
2023-03-02T13:39:01.626Z,28.70
2023-03-02T13:41:33.483Z,24.20
2023-03-02T13:44:16.874Z,23.27
2023-03-02T13:46:43.619Z,24.97
2023-03-02T13:49:11.693Z,27.57
2023-03-02T13:51:49.318Z,25.03
2023-03-02T13:54:29.355Z,26.47
2023-03-02T13:56:58.801Z,27.37
2023-03-02T13:59:25.773Z,24.97
2023-03-02T14:01:52.751Z,24.80
2023-03-02T14:04:23.255Z,24.10
2023-03-02T14:06:51.727Z,25.37
2023-03-02T14:09:18.847Z,24.80
2023-03-02T14:11:49.175Z,24.73
2023-03-02T14:14:24.695Z,27.17
2023-03-02T14:16:51.622Z,25.20
2023-03-02T14:19:18.857Z,24.10
2023-03-02T14:21:46.924Z,27.53
2023-03-02T14:24:14.169Z,25.03
2023-03-02T14:26:47.163Z,32.33
2023-03-02T14:29:28.704Z,25.70
2023-03-02T14:31:57.991Z,26.13
2023-03-02T14:34:24.844Z,23.47
2023-03-02T14:36:54.715Z,20.80
2023-03-02T14:39:44.652Z,28.00
2023-03-02T14:42:21.732Z,22.43
2023-03-02T14:44:50.265Z,24.47
2023-03-02T14:47:19.510Z,25.40
2023-03-02T14:49:46.570Z,24.80
2023-03-02T14:52:23.542Z,24.43
2023-03-02T14:54:54.200Z,26.20
2023-03-02T14:57:26.782Z,24.57
2023-03-02T14:59:54.484Z,27.63
2023-03-02T15:02:26.076Z,28.20
2023-03-02T15:04:56.816Z,25.20
2023-03-02T15:07:28.065Z,40.13
2023-03-02T15:09:57.030Z,29.23
2023-03-02T15:12:24.296Z,24.40
2023-03-02T15:14:51.077Z,27.97
2023-03-02T15:17:17.867Z,29.70
2023-03-02T15:19:44.695Z,29.40
2023-03-02T15:22:13.506Z,28.17
2023-03-02T15:24:40.373Z,28.63
2023-03-02T15:27:07.351Z,27.07
2023-03-02T15:29:34.301Z,24.20
2023-03-02T15:32:01.242Z,24.63
2023-03-02T15:34:28.189Z,24.07
2023-03-02T15:36:54.955Z,30.70
2023-03-02T15:39:21.672Z,26.47
2023-03-02T15:41:48.386Z,25.97
2023-03-02T15:44:22.955Z,28.23
2023-03-02T15:47:00.083Z,28.77
2023-03-02T15:49:29.272Z,28.60
2023-03-02T15:51:57.677Z,25.17
2023-03-02T15:54:25.532Z,24.90
2023-03-02T15:56:53.387Z,22.97
2023-03-02T15:59:21.739Z,23.67
2023-03-02T16:01:48.640Z,26.93
2023-03-02T16:04:15.674Z,26.47
2023-03-02T16:06:42.728Z,27.00
2023-03-02T16:09:10.092Z,27.13
2023-03-02T16:11:37.421Z,25.47
2023-03-02T16:14:04.775Z,26.57
2023-03-02T16:16:31.639Z,29.93
2023-03-02T16:18:59.357Z,26.20
2023-03-02T16:21:28.618Z,27.47
2023-03-02T16:24:03.289Z,28.20
2023-03-02T16:26:31.537Z,30.90
2023-03-02T16:28:59.472Z,27.43
2023-03-02T16:31:27.163Z,30.60
2023-03-02T16:33:55.802Z,27.83
2023-03-02T16:36:23.415Z,28.93
2023-03-02T16:38:50.198Z,27.27
2023-03-02T16:41:22.759Z,27.33
2023-03-02T16:43:57.811Z,29.83
2023-03-02T16:46:27.384Z,28.63
2023-03-02T16:48:54.457Z,26.37
2023-03-02T16:51:21.864Z,26.17
2023-03-02T16:53:48.806Z,24.93
2023-03-02T16:56:15.969Z,26.83
2023-03-02T16:58:43.332Z,29.93
2023-03-02T17:01:14.046Z,26.20
2023-03-02T17:03:41.718Z,30.53
2023-03-02T17:06:10.255Z,30.73
2023-03-02T17:08:37.170Z,29.47
2023-03-02T17:11:04.134Z,30.57
2023-03-02T17:13:31.031Z,30.13
2023-03-02T17:16:02.773Z,29.57
2023-03-02T17:18:30.301Z,28.67
2023-03-02T17:20:59.004Z,29.30
2023-03-02T17:23:27.074Z,28.87
2023-03-02T17:25:54.532Z,30.13
2023-03-02T17:28:21.510Z,34.27
2023-03-02T17:30:48.360Z,36.03
2023-03-02T17:33:16.812Z,29.97
2023-03-02T17:35:43.944Z,34.70
2023-03-02T17:38:11.508Z,35.03
2023-03-02T17:40:38.395Z,32.33
2023-03-02T17:43:05.149Z,29.73
2023-03-02T17:45:32.301Z,32.50
2023-03-02T17:47:59.348Z,28.73
2023-03-02T17:50:27.815Z,30.33
2023-03-02T17:52:55.277Z,31.70
2023-03-02T17:55:22.121Z,30.47
2023-03-02T17:57:48.925Z,31.53
2023-03-02T18:00:18.823Z,32.60
2023-03-02T18:02:45.747Z,36.77
2023-03-02T18:05:12.709Z,41.07
2023-03-02T18:07:39.791Z,41.00
2023-03-02T18:10:07.205Z,37.53
2023-03-02T18:12:34.515Z,40.87
2023-03-02T18:15:01.211Z,42.63
2023-03-02T18:17:28.403Z,42.77
2023-03-02T18:19:55.109Z,40.13
2023-03-02T18:22:22.218Z,42.57
2023-03-02T18:24:50.514Z,41.30
2023-03-02T18:27:17.422Z,37.47
2023-03-02T18:29:44.287Z,41.83
2023-03-02T18:32:11.543Z,40.67
2023-03-02T18:34:38.650Z,40.67
2023-03-02T18:37:05.453Z,45.43
2023-03-02T18:39:32.336Z,46.13
2023-03-02T18:41:59.654Z,43.20
2023-03-02T18:44:28.124Z,42.10
2023-03-02T18:46:55.588Z,46.83
2023-03-02T18:49:23.490Z,47.50
2023-03-02T18:51:50.471Z,42.73
2023-03-02T18:54:17.170Z,44.77
2023-03-02T18:56:43.959Z,48.13
2023-03-02T18:59:11.162Z,40.67
2023-03-02T19:01:38.078Z,46.10
2023-03-02T19:04:05.733Z,43.43
2023-03-02T19:06:33.243Z,46.60
2023-03-02T19:09:00.227Z,52.07
2023-03-02T19:11:27.383Z,48.73
2023-03-02T19:13:54.192Z,52.43
2023-03-02T19:16:21.181Z,47.60
2023-03-02T19:18:48.694Z,43.83
2023-03-02T19:21:16.315Z,48.37
2023-03-02T19:23:45.502Z,49.13
2023-03-02T19:26:13.083Z,44.80
2023-03-02T19:28:39.964Z,45.40
2023-03-02T19:31:09.018Z,44.17
2023-03-02T19:33:36.688Z,44.13
2023-03-02T19:36:04.819Z,38.50
2023-03-02T19:38:31.604Z,39.63
2023-03-02T19:40:59.798Z,42.20
2023-03-02T19:43:27.620Z,42.70
2023-03-02T19:45:54.715Z,44.73
2023-03-02T19:48:21.584Z,46.30
2023-03-02T19:50:48.623Z,45.60
2023-03-02T19:53:17.142Z,57.47
2023-03-02T19:55:44.334Z,61.33
2023-03-02T19:58:16.976Z,60.37
2023-03-02T20:00:44.718Z,56.70
2023-03-02T20:03:12.071Z,61.93
2023-03-02T20:05:39.004Z,63.20
2023-03-02T20:08:06.873Z,68.00
2023-03-02T20:10:43.110Z,64.33
2023-03-02T20:13:10.759Z,67.73
2023-03-02T20:15:40.482Z,70.43
2023-03-02T20:18:10.589Z,67.10
2023-03-02T20:20:37.344Z,60.10
2023-03-02T20:23:04.635Z,83.60
2023-03-02T20:25:31.768Z,77.40
2023-03-02T20:27:58.844Z,74.77
2023-03-02T20:30:32.640Z,62.17
2023-03-02T20:32:59.835Z,63.03
2023-03-02T20:35:29.669Z,63.10
2023-03-02T20:37:57.880Z,50.53
2023-03-02T20:40:25.769Z,47.67
2023-03-02T20:42:52.530Z,41.17
2023-03-02T20:45:19.634Z,41.20
2023-03-02T20:47:47.120Z,43.93
2023-03-02T20:50:19.183Z,40.73
2023-03-02T20:52:45.879Z,42.07
2023-03-02T20:55:13.179Z,37.23
2023-03-02T20:57:40.281Z,40.70
2023-03-02T21:00:11.907Z,44.83
2023-03-02T21:02:38.695Z,40.97
2023-03-02T21:05:06.018Z,46.03
2023-03-02T21:07:35.730Z,46.60
2023-03-02T21:10:05.077Z,40.40
2023-03-02T21:12:33.210Z,43.87
2023-03-02T21:15:02.076Z,47.70
2023-03-02T21:17:30.674Z,44.03
2023-03-02T21:19:58.189Z,41.90
2023-03-02T21:22:25.257Z,42.73
2023-03-02T21:24:53.176Z,37.90
2023-03-02T21:27:20.674Z,43.37
2023-03-02T21:29:47.879Z,43.63
2023-03-02T21:32:14.823Z,39.67
2023-03-02T21:34:41.654Z,45.67
2023-03-02T21:37:08.652Z,42.93
2023-03-02T21:39:35.466Z,36.93
2023-03-02T21:42:02.398Z,44.10
2023-03-02T21:44:29.150Z,43.07
2023-03-02T21:46:55.830Z,38.10
2023-03-02T21:49:23.114Z,40.77
2023-03-02T21:51:50.160Z,38.73
2023-03-02T21:54:17.265Z,36.07
2023-03-02T21:56:44.425Z,34.20
2023-03-02T21:59:12.163Z,38.93
2023-03-02T22:01:39.324Z,37.23
2023-03-02T22:04:06.075Z,34.60
2023-03-02T22:06:34.482Z,33.50
2023-03-02T22:09:02.136Z,33.23
2023-03-02T22:11:31.943Z,37.27
2023-03-02T22:14:08.013Z,39.07
2023-03-02T22:16:40.652Z,37.70
2023-03-02T22:19:37.987Z,40.93
2023-03-02T22:22:19.180Z,39.97
2023-03-02T22:24:50.734Z,41.23
2023-03-02T22:27:24.604Z,38.33
2023-03-02T22:29:57.787Z,45.30
2023-03-02T22:32:29.041Z,39.07
2023-03-02T22:34:58.216Z,41.00
2023-03-02T22:37:27.603Z,35.53
2023-03-02T22:39:56.828Z,40.60
2023-03-02T22:42:26.956Z,38.73
2023-03-02T22:44:59.638Z,37.57
2023-03-02T22:47:27.410Z,39.57
2023-03-02T22:50:00.369Z,38.37
2023-03-02T22:52:36.210Z,36.43
2023-03-02T22:55:28.917Z,35.40
2023-03-02T22:57:55.736Z,38.90
2023-03-02T23:00:41.622Z,37.33
2023-03-02T23:03:20.086Z,37.50
2023-03-02T23:05:51.465Z,40.80
2023-03-02T23:08:22.830Z,37.70
2023-03-02T23:10:51.602Z,43.87
2023-03-02T23:13:21.194Z,43.77
2023-03-02T23:15:49.320Z,41.13
2023-03-02T23:18:25.691Z,40.23
2023-03-02T23:20:52.830Z,40.87
2023-03-02T23:23:21.134Z,38.70
2023-03-02T23:25:47.985Z,35.73
2023-03-02T23:28:15.036Z,36.93
2023-03-02T23:30:41.878Z,38.37
2023-03-02T23:33:08.990Z,37.10
2023-03-02T23:35:35.845Z,39.47
2023-03-02T23:38:02.592Z,34.57
2023-03-02T23:40:29.769Z,41.67
2023-03-02T23:42:56.502Z,40.80
2023-03-02T23:45:23.215Z,32.50
2023-03-02T23:47:49.958Z,36.10
2023-03-02T23:50:16.797Z,39.20
2023-03-02T23:52:43.532Z,36.40
2023-03-02T23:55:10.708Z,41.63
2023-03-02T23:57:37.720Z,40.23
